createdAt,value
2023-01-08T00:01:33.711Z,5.96
2023-01-08T00:04:36.399Z,5.99
2023-01-08T00:07:38.702Z,6.03
2023-01-08T00:10:41.308Z,6.07
2023-01-08T00:13:43.929Z,6.04
2023-01-08T00:16:46.707Z,6.10
2023-01-08T00:19:49.217Z,6.07
2023-01-08T00:22:52.207Z,6.06
2023-01-08T00:25:54.488Z,6.00
2023-01-08T00:28:57.564Z,5.92
2023-01-08T00:32:00.021Z,5.87
2023-01-08T00:35:02.563Z,5.88
2023-01-08T00:38:05.260Z,6.00
2023-01-08T00:41:08.011Z,6.03
2023-01-08T00:44:10.382Z,5.95
2023-01-08T00:47:13.289Z,5.92
2023-01-08T00:50:15.624Z,6.09
2023-01-08T00:53:18.682Z,6.06
2023-01-08T00:56:20.998Z,6.13
2023-01-08T00:59:23.660Z,6.12
2023-01-08T01:02:27.757Z,6.15
2023-01-08T01:05:30.730Z,6.26
2023-01-08T01:08:34.008Z,6.15
2023-01-08T01:11:36.705Z,6.11
2023-01-08T01:14:39.230Z,6.12
2023-01-08T01:17:42.803Z,6.25
2023-01-08T01:20:45.206Z,6.14
2023-01-08T01:23:47.825Z,6.09
2023-01-08T01:26:50.261Z,6.10
2023-01-08T01:29:53.685Z,6.10
2023-01-08T01:32:56.013Z,6.13
2023-01-08T01:36:02.699Z,6.16
2023-01-08T01:39:05.453Z,6.20
2023-01-08T01:42:31.933Z,6.09
2023-01-08T01:45:34.235Z,5.99
2023-01-08T01:48:37.207Z,6.02
2023-01-08T01:51:43.462Z,6.01
2023-01-08T01:54:46.119Z,6.10
2023-01-08T01:57:51.794Z,6.20
2023-01-08T02:00:55.986Z,6.07
2023-01-08T02:03:58.768Z,6.01
2023-01-08T02:07:01.446Z,6.01
2023-01-08T02:10:07.958Z,6.09
2023-01-08T02:13:14.381Z,6.09
2023-01-08T02:16:19.727Z,6.07
2023-01-08T02:19:42.616Z,6.09
2023-01-08T02:22:48.285Z,6.09
2023-01-08T02:26:09.743Z,6.13
2023-01-08T02:29:15.566Z,6.13
2023-01-08T02:32:18.199Z,6.11
2023-01-08T02:35:20.546Z,5.99
2023-01-08T02:38:23.716Z,6.06
2023-01-08T02:41:32.256Z,6.00
2023-01-08T02:44:41.556Z,6.05
2023-01-08T02:47:43.790Z,6.09
2023-01-08T02:50:53.203Z,6.13
2023-01-08T02:53:58.936Z,6.02
2023-01-08T02:57:05.640Z,6.03
2023-01-08T03:00:08.529Z,6.04
2023-01-08T03:03:22.727Z,6.16
2023-01-08T03:06:26.080Z,6.05
2023-01-08T03:09:29.206Z,6.02
2023-01-08T03:12:45.035Z,6.01
2023-01-08T03:15:49.665Z,5.99
2023-01-08T03:18:57.620Z,5.96
2023-01-08T03:22:01.104Z,5.98
2023-01-08T03:25:04.362Z,5.93
2023-01-08T03:28:10.023Z,6.01
2023-01-08T03:31:14.852Z,6.00
2023-01-08T03:34:20.114Z,5.99
2023-01-08T03:37:26.144Z,6.01
2023-01-08T03:40:36.774Z,6.02
2023-01-08T03:43:39.173Z,5.90
2023-01-08T03:46:45.368Z,5.98
2023-01-08T03:49:49.148Z,5.93
2023-01-08T03:52:51.809Z,5.98
2023-01-08T03:55:54.329Z,6.00
2023-01-08T03:58:57.194Z,5.98
2023-01-08T04:01:59.795Z,5.96
2023-01-08T04:05:02.434Z,6.00
2023-01-08T04:08:05.309Z,5.97
2023-01-08T04:11:07.929Z,5.95
2023-01-08T04:14:12.264Z,5.96
2023-01-08T04:17:14.901Z,6.01
2023-01-08T04:20:17.536Z,5.97
2023-01-08T04:23:20.109Z,5.93
2023-01-08T04:26:22.807Z,5.96
2023-01-08T04:29:25.433Z,5.84
2023-01-08T04:32:27.939Z,5.89
2023-01-08T04:35:30.557Z,5.89
2023-01-08T04:38:32.917Z,5.96
2023-01-08T04:41:35.546Z,5.89
2023-01-08T04:44:37.827Z,5.81
2023-01-08T04:47:40.419Z,5.85
2023-01-08T04:50:42.731Z,5.93
2023-01-08T04:53:46.339Z,5.95
2023-01-08T04:56:51.877Z,5.94
2023-01-08T04:59:54.459Z,6.02
2023-01-08T05:02:56.841Z,6.03
2023-01-08T05:06:00.404Z,5.97
2023-01-08T05:09:03.299Z,5.90
2023-01-08T05:12:06.129Z,5.99
2023-01-08T05:15:09.079Z,5.91
2023-01-08T05:18:11.663Z,5.93
2023-01-08T05:21:14.108Z,5.94
2023-01-08T05:24:16.767Z,5.96
2023-01-08T05:27:19.154Z,5.97
2023-01-08T05:30:21.841Z,5.88
2023-01-08T05:33:24.658Z,5.92
2023-01-08T05:36:27.328Z,5.93
2023-01-08T05:39:29.732Z,5.92
2023-01-08T05:42:33.814Z,5.93
2023-01-08T05:45:36.179Z,5.83
2023-01-08T05:48:39.539Z,5.77
2023-01-08T05:51:41.930Z,5.76
2023-01-08T05:54:44.460Z,5.82
2023-01-08T05:57:46.795Z,5.86
2023-01-08T06:00:49.517Z,5.80
2023-01-08T06:03:54.999Z,5.86
2023-01-08T06:06:57.388Z,5.94
2023-01-08T06:10:00.047Z,5.92
2023-01-08T06:13:02.404Z,5.90
2023-01-08T06:16:05.320Z,5.85
2023-01-08T06:19:09.667Z,5.78
2023-01-08T06:22:12.248Z,5.76
2023-01-08T06:25:14.636Z,5.77
2023-01-08T06:28:17.277Z,5.73
2023-01-08T06:31:19.718Z,5.75
2023-01-08T06:34:22.361Z,5.71
2023-01-08T06:37:24.760Z,5.82
2023-01-08T06:40:27.389Z,5.76
2023-01-08T06:43:29.739Z,5.88
2023-01-08T06:46:32.408Z,5.79
2023-01-08T06:49:34.759Z,5.77
2023-01-08T06:52:37.400Z,5.80
2023-01-08T06:55:39.981Z,5.85
2023-01-08T06:58:42.629Z,5.83
2023-01-08T07:01:45.053Z,5.79
2023-01-08T07:04:47.639Z,5.85
2023-01-08T07:07:50.283Z,5.89
2023-01-08T07:10:52.937Z,5.91
2023-01-08T07:13:55.602Z,5.95
2023-01-08T07:16:58.318Z,5.85
2023-01-08T07:20:00.678Z,5.86
2023-01-08T07:23:04.483Z,5.81
2023-01-08T07:26:08.129Z,5.88
2023-01-08T07:29:10.680Z,5.86
2023-01-08T07:32:12.918Z,5.99
2023-01-08T07:35:15.503Z,5.93
2023-01-08T07:38:17.938Z,5.86
2023-01-08T07:41:20.847Z,5.81
2023-01-08T07:44:23.464Z,5.87
2023-01-08T07:47:26.077Z,5.95
2023-01-08T07:50:28.692Z,5.95
2023-01-08T07:53:31.387Z,5.80
2023-01-08T07:56:33.890Z,5.79
2023-01-08T07:59:36.856Z,5.86
2023-01-08T08:02:39.417Z,5.82
2023-01-08T08:05:42.191Z,5.81
2023-01-08T08:08:44.593Z,5.85
2023-01-08T08:11:47.499Z,5.76
2023-01-08T08:14:49.888Z,5.81
2023-01-08T08:17:52.516Z,5.95
2023-01-08T08:20:54.925Z,5.95
2023-01-08T08:23:57.805Z,5.86
2023-01-08T08:27:00.143Z,5.96
2023-01-08T08:30:02.891Z,5.92
2023-01-08T08:33:07.245Z,5.96
2023-01-08T08:36:09.892Z,5.88
2023-01-08T08:39:12.795Z,5.99
2023-01-08T08:42:15.767Z,6.03
2023-01-08T08:45:18.099Z,6.00
2023-01-08T08:48:20.764Z,5.92
2023-01-08T08:51:23.135Z,5.93
2023-01-08T08:54:25.777Z,6.08
2023-01-08T08:57:28.122Z,6.01
2023-01-08T09:00:30.807Z,6.09
2023-01-08T09:03:33.169Z,6.09
2023-01-08T09:06:35.863Z,6.17
2023-01-08T09:09:38.361Z,6.31
2023-01-08T09:12:41.019Z,6.12
2023-01-08T09:15:43.457Z,6.22
2023-01-08T09:18:46.953Z,6.19
2023-01-08T09:21:50.428Z,6.20
2023-01-08T09:24:55.100Z,6.33
2023-01-08T09:28:04.656Z,6.33
2023-01-08T09:31:07.564Z,6.39
2023-01-08T09:34:09.975Z,6.56
2023-01-08T09:37:12.563Z,6.66
2023-01-08T09:40:16.467Z,6.81
2023-01-08T09:43:21.179Z,6.69
2023-01-08T09:46:26.218Z,6.65
2023-01-08T09:49:44.098Z,6.77
2023-01-08T09:52:46.715Z,6.88
2023-01-08T09:56:08.731Z,7.04
2023-01-08T09:59:14.603Z,7.28
2023-01-08T10:02:19.050Z,7.51
2023-01-08T10:05:22.194Z,7.42
2023-01-08T10:08:24.515Z,7.13
2023-01-08T10:11:30.830Z,7.25
2023-01-08T10:14:35.041Z,7.32
2023-01-08T10:17:39.208Z,7.69
2023-01-08T10:20:41.556Z,7.79
2023-01-08T10:23:51.771Z,7.40
2023-01-08T10:26:54.518Z,7.45
2023-01-08T10:30:04.860Z,7.32
2023-01-08T10:33:11.120Z,7.64
2023-01-08T10:36:15.089Z,7.45
2023-01-08T10:39:28.384Z,8.00
2023-01-08T10:42:34.313Z,8.27
2023-01-08T10:45:37.109Z,8.71
2023-01-08T10:48:45.967Z,8.95
2023-01-08T10:51:50.326Z,8.74
2023-01-08T10:54:52.972Z,8.64
2023-01-08T10:57:58.065Z,8.24
2023-01-08T11:01:36.189Z,8.45
2023-01-08T11:04:38.537Z,8.58
2023-01-08T11:07:41.476Z,8.06
2023-01-08T11:10:52.427Z,8.14
2023-01-08T11:13:59.955Z,8.12
2023-01-08T11:17:08.594Z,8.13
2023-01-08T11:20:20.892Z,8.19
2023-01-08T11:23:24.808Z,8.42
2023-01-08T11:26:27.821Z,8.38
2023-01-08T11:29:34.888Z,8.51
2023-01-08T11:32:37.847Z,8.67
2023-01-08T11:35:42.772Z,8.51
2023-01-08T11:38:48.558Z,8.66
2023-01-08T11:41:53.920Z,8.80
2023-01-08T11:44:56.441Z,8.51
2023-01-08T11:48:05.373Z,8.65
2023-01-08T11:51:29.931Z,8.56
2023-01-08T11:54:32.434Z,8.62
2023-01-08T11:57:35.006Z,8.58
2023-01-08T12:00:44.465Z,8.79
2023-01-08T12:03:49.665Z,8.76
2023-01-08T12:07:06.074Z,8.68
2023-01-08T12:10:21.628Z,9.15
2023-01-08T12:13:27.113Z,8.89
2023-01-08T12:16:38.811Z,8.96
2023-01-08T12:19:59.552Z,9.03
2023-01-08T12:23:15.567Z,8.91
2023-01-08T12:26:20.040Z,9.07
2023-01-08T12:29:29.926Z,9.18
2023-01-08T12:32:37.769Z,9.08
2023-01-08T12:35:47.685Z,9.17
2023-01-08T12:38:54.352Z,9.25
2023-01-08T12:42:24.575Z,9.45
2023-01-08T12:45:28.481Z,9.38
2023-01-08T12:48:33.069Z,9.21
2023-01-08T12:51:46.020Z,9.27
2023-01-08T12:54:54.426Z,9.17
2023-01-08T12:58:08.101Z,9.18
2023-01-08T13:01:26.036Z,9.05
2023-01-08T13:04:28.719Z,8.97
2023-01-08T13:07:36.906Z,9.00
2023-01-08T13:10:49.775Z,8.89
2023-01-08T13:13:59.481Z,8.82
2023-01-08T13:17:05.974Z,8.83
2023-01-08T13:20:08.954Z,8.86
2023-01-08T13:23:23.182Z,8.78
2023-01-08T13:26:30.742Z,8.82
2023-01-08T13:29:33.255Z,8.80
2023-01-08T13:32:39.544Z,8.80
2023-01-08T13:35:41.941Z,8.76
2023-01-08T13:38:45.424Z,8.67
2023-01-08T13:42:07.041Z,8.61
2023-01-08T13:45:13.034Z,8.68
2023-01-08T13:48:23.076Z,8.72
2023-01-08T13:51:25.853Z,8.49
2023-01-08T13:54:28.236Z,8.49
2023-01-08T13:57:43.804Z,8.39
2023-01-08T14:00:51.194Z,8.12
2023-01-08T14:03:53.904Z,8.09
2023-01-08T14:07:10.390Z,8.11
2023-01-08T14:10:14.715Z,7.99
2023-01-08T14:13:18.453Z,7.89
2023-01-08T14:16:21.772Z,7.82
2023-01-08T14:19:25.493Z,7.73
2023-01-08T14:22:32.509Z,7.70
2023-01-08T14:25:34.889Z,7.62
2023-01-08T14:28:37.782Z,7.50
2023-01-08T14:31:45.694Z,7.46
2023-01-08T14:34:50.112Z,7.40
2023-01-08T14:37:52.777Z,7.41
2023-01-08T14:41:03.893Z,7.30
2023-01-08T14:44:06.206Z,7.26
2023-01-08T14:47:17.061Z,7.06
2023-01-08T14:50:23.625Z,6.89
2023-01-08T14:53:35.493Z,6.83
2023-01-08T14:56:37.953Z,6.80
2023-01-08T14:59:40.686Z,6.77
2023-01-08T15:02:43.065Z,6.85
2023-01-08T15:05:49.303Z,6.79
2023-01-08T15:08:51.623Z,6.80
2023-01-08T15:11:59.292Z,6.77
2023-01-08T15:15:20.486Z,6.72
2023-01-08T15:18:23.403Z,6.70
2023-01-08T15:21:26.132Z,6.73
2023-01-08T15:24:36.660Z,6.70
2023-01-08T15:27:39.727Z,6.70
2023-01-08T15:30:45.916Z,6.66
2023-01-08T15:33:48.216Z,6.62
2023-01-08T15:36:50.872Z,6.53
2023-01-08T15:39:53.618Z,6.53
2023-01-08T15:43:11.544Z,6.52
2023-01-08T15:46:14.898Z,6.57
2023-01-08T15:49:17.566Z,6.57
2023-01-08T15:52:23.246Z,6.58
2023-01-08T15:55:25.896Z,6.55
2023-01-08T15:58:28.532Z,6.52
2023-01-08T16:01:32.604Z,6.54
2023-01-08T16:04:35.521Z,6.59
2023-01-08T16:07:42.077Z,6.59
2023-01-08T16:10:45.462Z,6.68
2023-01-08T16:13:47.868Z,6.64
2023-01-08T16:16:50.442Z,6.64
2023-01-08T16:19:52.807Z,6.61
2023-01-08T16:22:57.145Z,6.61
2023-01-08T16:25:59.497Z,6.70
2023-01-08T16:29:02.091Z,6.71
2023-01-08T16:32:04.778Z,6.71
2023-01-08T16:35:07.888Z,6.74
2023-01-08T16:38:12.447Z,6.72
2023-01-08T16:41:15.593Z,6.79
2023-01-08T16:44:19.152Z,6.69
2023-01-08T16:47:22.171Z,6.66
2023-01-08T16:50:24.558Z,6.61
2023-01-08T16:53:27.239Z,6.65
2023-01-08T16:56:29.787Z,6.64
2023-01-08T16:59:33.143Z,6.73
2023-01-08T17:02:35.747Z,6.83
2023-01-08T17:05:38.512Z,6.78
2023-01-08T17:08:42.279Z,6.81
2023-01-08T17:11:45.844Z,6.79
2023-01-08T17:14:49.847Z,6.92
2023-01-08T17:17:53.833Z,6.76
2023-01-08T17:20:56.210Z,6.78
2023-01-08T17:23:59.064Z,6.74
2023-01-08T17:27:02.171Z,6.75
2023-01-08T17:30:05.146Z,6.78
2023-01-08T17:33:07.795Z,6.88
2023-01-08T17:36:28.770Z,6.76
2023-01-08T17:39:31.221Z,6.74
2023-01-08T17:42:34.074Z,6.86
2023-01-08T17:45:39.617Z,6.83
2023-01-08T17:48:44.598Z,6.87
2023-01-08T17:51:47.342Z,6.85
2023-01-08T17:54:50.865Z,6.93
2023-01-08T17:57:53.465Z,6.84
2023-01-08T18:00:56.477Z,6.88
2023-01-08T18:03:59.489Z,6.85
2023-01-08T18:07:02.458Z,6.81
2023-01-08T18:10:05.704Z,6.78
2023-01-08T18:13:08.243Z,6.84
2023-01-08T18:16:13.295Z,6.95
2023-01-08T18:19:16.840Z,6.89
2023-01-08T18:22:19.501Z,6.82
2023-01-08T18:25:21.869Z,6.78
2023-01-08T18:28:24.850Z,6.89
2023-01-08T18:31:27.702Z,6.86
2023-01-08T18:34:30.577Z,6.87
2023-01-08T18:37:33.042Z,6.82
2023-01-08T18:40:36.035Z,6.80
2023-01-08T18:43:38.671Z,6.78
2023-01-08T18:46:41.379Z,6.89
2023-01-08T18:49:43.905Z,6.82
2023-01-08T18:52:46.644Z,7.00
2023-01-08T18:55:51.133Z,6.89
2023-01-08T18:58:53.843Z,6.89
2023-01-08T19:01:56.297Z,6.99
2023-01-08T19:04:59.282Z,6.90
2023-01-08T19:08:01.770Z,6.87
2023-01-08T19:11:04.752Z,6.95
2023-01-08T19:14:07.236Z,6.96
2023-01-08T19:17:09.977Z,6.90
2023-01-08T19:20:12.921Z,6.81
2023-01-08T19:23:15.965Z,6.89
2023-01-08T19:26:18.821Z,6.87
2023-01-08T19:29:21.576Z,6.83
2023-01-08T19:32:24.785Z,6.83
2023-01-08T19:35:28.453Z,6.85
2023-01-08T19:38:30.928Z,6.85
2023-01-08T19:41:52.685Z,6.85
2023-01-08T19:44:55.285Z,6.88
2023-01-08T19:47:58.104Z,6.86
2023-01-08T19:51:05.849Z,6.91
2023-01-08T19:54:08.503Z,6.95
2023-01-08T19:57:11.171Z,6.98
2023-01-08T20:00:14.070Z,7.05
2023-01-08T20:03:21.593Z,7.04
2023-01-08T20:06:26.135Z,7.12
2023-01-08T20:09:29.162Z,6.97
2023-01-08T20:12:31.648Z,6.94
2023-01-08T20:15:34.622Z,6.98
2023-01-08T20:18:37.988Z,6.96
2023-01-08T20:21:40.964Z,7.02
2023-01-08T20:24:43.662Z,6.98
2023-01-08T20:27:46.449Z,6.96
2023-01-08T20:30:49.090Z,6.97
2023-01-08T20:33:52.263Z,7.03
2023-01-08T20:36:56.372Z,7.06
2023-01-08T20:39:59.479Z,7.14
2023-01-08T20:43:02.268Z,7.16
2023-01-08T20:46:06.099Z,7.24
2023-01-08T20:49:11.679Z,7.33
2023-01-08T20:52:16.381Z,7.65
2023-01-08T20:55:18.861Z,7.88
2023-01-08T20:58:21.595Z,8.07
2023-01-08T21:01:25.277Z,8.21
2023-01-08T21:04:28.290Z,8.37
2023-01-08T21:07:30.742Z,8.30
2023-01-08T21:10:34.220Z,8.22
2023-01-08T21:13:37.657Z,8.09
2023-01-08T21:16:40.720Z,7.95
2023-01-08T21:19:43.219Z,7.93
2023-01-08T21:22:46.714Z,8.09
2023-01-08T21:25:54.249Z,7.91
2023-01-08T21:28:57.033Z,7.67
2023-01-08T21:31:59.444Z,7.52
2023-01-08T21:35:02.099Z,7.32
2023-01-08T21:38:04.484Z,7.29
2023-01-08T21:41:08.716Z,7.20
2023-01-08T21:44:33.748Z,7.20
2023-01-08T21:47:36.428Z,7.29
2023-01-08T21:50:38.778Z,7.16
2023-01-08T21:53:41.332Z,7.03
2023-01-08T21:56:43.712Z,7.06
2023-01-08T21:59:48.999Z,6.95
2023-01-08T22:02:51.292Z,6.97
2023-01-08T22:05:57.424Z,7.07
2023-01-08T22:08:59.838Z,7.05
2023-01-08T22:12:02.941Z,7.08
2023-01-08T22:15:05.615Z,7.07
2023-01-08T22:18:08.293Z,7.20
2023-01-08T22:21:11.801Z,7.21
2023-01-08T22:24:14.443Z,7.16
2023-01-08T22:27:17.156Z,7.11
2023-01-08T22:30:20.043Z,7.18
2023-01-08T22:33:22.359Z,7.21
2023-01-08T22:36:25.332Z,7.24
2023-01-08T22:39:27.649Z,7.04
2023-01-08T22:42:30.332Z,6.87
2023-01-08T22:45:32.982Z,6.91
2023-01-08T22:48:35.717Z,6.77
2023-01-08T22:51:38.995Z,6.89
2023-01-08T22:54:41.710Z,6.77
2023-01-08T22:57:44.052Z,6.79
2023-01-08T23:00:48.448Z,6.74
2023-01-08T23:03:51.774Z,6.74
2023-01-08T23:06:54.384Z,6.82
2023-01-08T23:09:56.664Z,6.73
2023-01-08T23:12:59.345Z,6.61
2023-01-08T23:16:01.906Z,6.58
2023-01-08T23:19:04.618Z,6.53
2023-01-08T23:22:06.970Z,6.46
2023-01-08T23:25:09.693Z,6.37
2023-01-08T23:28:12.023Z,6.28
2023-01-08T23:31:16.052Z,6.22
2023-01-08T23:34:18.476Z,6.15
2023-01-08T23:37:21.461Z,6.16
2023-01-08T23:40:24.003Z,6.24
2023-01-08T23:43:26.763Z,6.22
2023-01-08T23:46:29.116Z,6.24
2023-01-08T23:49:32.608Z,6.20
2023-01-08T23:52:34.875Z,6.17
2023-01-08T23:55:37.473Z,6.12
2023-01-08T23:58:40.220Z,6.00
